Accueil
METAR-TAF:

METAR-TAF

Aéroports :

Bamako, Mali

Aéroport international Modibo Keïta

latitude: 12-32N, longitude: 007-57W, altitude: 380 m

Observation

Le bulletin a été fait il y a 16 minutes, à 05:00 UTC
Vent 3 kt de ouest/sud-ouest
Température 23°C
Humidité 94%
Pression 1014 hPa
Visibilité 10 km ou plus
Quelques nuages à une hauteur de 2000 ft

METAR: GABS 260500Z 24003KT 9999 FEW020 23/22 Q1014 NOSIG

Heure: 05:16 (05:16 UTC)


TAF: absent

Observations et prévisions météorologiques de plus de 4000 aéroports (messages METAR et TAF).

Les stations disponibles sont représentées par des disques jaunes et rouges sur la carte.

Passer la souris dessus pour voir le nom de la station.

Cliquer dessus pour voir les observations et prévisions météorologiques.

Pour changer de carte: cliquez sur les boutons verts avec une croix noire pour zoomer, sur le bouton vert avec un tiret pour effectuer un zoom arrière, ou sur les flèches vertes pour les cartes adjacentes.


METAR-TAF: